sensor_id;sensor_type;location;lat;lon;timestamp;P1;durP1;ratioP1;P2;durP2;ratioP2
6825;SDS011;3451;52.476;13.316;2022-11-22T00:00:49;29.50;;;15.63;;
6825;SDS011;3451;52.476;13.316;2022-11-22T00:03:15;27.50;;;15.60;;
6825;SDS011;3451;52.476;13.316;2022-11-22T00:05:41;27.53;;;14.93;;
6825;SDS011;3451;52.476;13.316;2022-11-22T00:08:08;25.97;;;15.37;;
6825;SDS011;3451;52.476;13.316;2022-11-22T00:10:34;27.90;;;15.23;;
6825;SDS011;3451;52.476;13.316;2022-11-22T00:13:01;23.73;;;13.63;;
6825;SDS011;3451;52.476;13.316;2022-11-22T00:15:27;28.00;;;15.00;;
6825;SDS011;3451;52.476;13.316;2022-11-22T00:17:54;20.93;;;13.53;;
6825;SDS011;3451;52.476;13.316;2022-11-22T00:20:21;25.33;;;13.80;;
6825;SDS011;3451;52.476;13.316;2022-11-22T00:22:47;25.83;;;14.03;;
6825;SDS011;3451;52.476;13.316;2022-11-22T00:25:13;23.47;;;13.90;;
6825;SDS011;3451;52.476;13.316;2022-11-22T00:27:40;28.93;;;14.33;;
6825;SDS011;3451;52.476;13.316;2022-11-22T00:30:06;24.67;;;14.00;;
6825;SDS011;3451;52.476;13.316;2022-11-22T00:32:33;24.47;;;14.30;;
6825;SDS011;3451;52.476;13.316;2022-11-22T00:34:59;25.07;;;14.23;;
6825;SDS011;3451;52.476;13.316;2022-11-22T00:37:25;24.90;;;14.37;;
6825;SDS011;3451;52.476;13.316;2022-11-22T00:39:53;22.93;;;14.30;;
6825;SDS011;3451;52.476;13.316;2022-11-22T00:42:19;26.57;;;15.37;;
6825;SDS011;3451;52.476;13.316;2022-11-22T00:44:45;27.63;;;15.37;;
6825;SDS011;3451;52.476;13.316;2022-11-22T00:47:11;28.80;;;15.43;;
6825;SDS011;3451;52.476;13.316;2022-11-22T00:49:38;24.87;;;14.53;;
6825;SDS011;3451;52.476;13.316;2022-11-22T00:52:04;25.83;;;15.30;;
6825;SDS011;3451;52.476;13.316;2022-11-22T00:54:30;29.17;;;16.37;;
6825;SDS011;3451;52.476;13.316;2022-11-22T00:56:56;27.67;;;14.77;;
6825;SDS011;3451;52.476;13.316;2022-11-22T00:59:23;27.60;;;16.93;;
6825;SDS011;3451;52.476;13.316;2022-11-22T01:01:49;31.33;;;16.13;;
6825;SDS011;3451;52.476;13.316;2022-11-22T01:04:15;29.13;;;16.13;;
6825;SDS011;3451;52.476;13.316;2022-11-22T01:06:42;27.93;;;16.07;;
6825;SDS011;3451;52.476;13.316;2022-11-22T01:09:08;25.60;;;15.03;;
6825;SDS011;3451;52.476;13.316;2022-11-22T01:11:35;31.37;;;16.80;;
6825;SDS011;3451;52.476;13.316;2022-11-22T01:14:01;31.93;;;16.40;;
6825;SDS011;3451;52.476;13.316;2022-11-22T01:16:27;28.77;;;16.37;;
6825;SDS011;3451;52.476;13.316;2022-11-22T01:18:53;29.33;;;16.00;;
6825;SDS011;3451;52.476;13.316;2022-11-22T01:21:20;30.13;;;16.40;;
6825;SDS011;3451;52.476;13.316;2022-11-22T01:23:46;28.37;;;15.67;;
6825;SDS011;3451;52.476;13.316;2022-11-22T01:26:12;28.47;;;16.57;;
6825;SDS011;3451;52.476;13.316;2022-11-22T01:28:38;29.87;;;16.20;;
6825;SDS011;3451;52.476;13.316;2022-11-22T01:31:05;30.07;;;16.30;;
6825;SDS011;3451;52.476;13.316;2022-11-22T01:33:31;29.73;;;16.73;;
6825;SDS011;3451;52.476;13.316;2022-11-22T01:35:57;27.27;;;16.13;;
6825;SDS011;3451;52.476;13.316;2022-11-22T01:38:24;34.07;;;16.37;;
6825;SDS011;3451;52.476;13.316;2022-11-22T01:40:50;30.80;;;16.97;;
6825;SDS011;3451;52.476;13.316;2022-11-22T01:43:18;26.67;;;14.70;;
6825;SDS011;3451;52.476;13.316;2022-11-22T01:45:45;30.97;;;16.87;;
6825;SDS011;3451;52.476;13.316;2022-11-22T01:48:15;31.47;;;15.50;;
6825;SDS011;3451;52.476;13.316;2022-11-22T01:50:43;25.67;;;15.40;;
6825;SDS011;3451;52.476;13.316;2022-11-22T01:53:13;30.73;;;16.00;;
6825;SDS011;3451;52.476;13.316;2022-11-22T01:55:40;28.17;;;15.60;;
6825;SDS011;3451;52.476;13.316;2022-11-22T01:58:07;26.03;;;15.27;;
6825;SDS011;3451;52.476;13.316;2022-11-22T02:00:35;30.10;;;16.00;;
6825;SDS011;3451;52.476;13.316;2022-11-22T02:03:02;31.60;;;16.47;;
6825;SDS011;3451;52.476;13.316;2022-11-22T02:05:30;27.40;;;15.97;;
6825;SDS011;3451;52.476;13.316;2022-11-22T02:07:58;30.67;;;16.13;;
6825;SDS011;3451;52.476;13.316;2022-11-22T02:10:26;28.73;;;15.60;;
6825;SDS011;3451;52.476;13.316;2022-11-22T02:12:53;27.43;;;15.17;;
6825;SDS011;3451;52.476;13.316;2022-11-22T02:15:20;30.87;;;15.80;;
6825;SDS011;3451;52.476;13.316;2022-11-22T02:17:47;28.53;;;15.27;;
6825;SDS011;3451;52.476;13.316;2022-11-22T02:20:13;29.07;;;15.97;;
6825;SDS011;3451;52.476;13.316;2022-11-22T02:23:02;30.40;;;17.07;;
6825;SDS011;3451;52.476;13.316;2022-11-22T02:28:03;30.87;;;17.70;;
6825;SDS011;3451;52.476;13.316;2022-11-22T02:30:29;33.67;;;16.73;;
6825;SDS011;3451;52.476;13.316;2022-11-22T02:32:55;30.03;;;16.67;;
6825;SDS011;3451;52.476;13.316;2022-11-22T02:35:23;30.03;;;16.03;;
6825;SDS011;3451;52.476;13.316;2022-11-22T02:37:57;32.03;;;16.77;;
6825;SDS011;3451;52.476;13.316;2022-11-22T02:40:24;27.67;;;15.00;;
6825;SDS011;3451;52.476;13.316;2022-11-22T02:42:52;29.77;;;15.93;;
6825;SDS011;3451;52.476;13.316;2022-11-22T02:45:20;27.20;;;15.37;;
6825;SDS011;3451;52.476;13.316;2022-11-22T02:47:46;28.53;;;15.87;;
6825;SDS011;3451;52.476;13.316;2022-11-22T02:50:13;30.17;;;16.07;;
6825;SDS011;3451;52.476;13.316;2022-11-22T02:52:39;30.63;;;15.83;;
6825;SDS011;3451;52.476;13.316;2022-11-22T02:55:05;29.90;;;16.07;;
6825;SDS011;3451;52.476;13.316;2022-11-22T02:57:32;29.67;;;16.37;;
6825;SDS011;3451;52.476;13.316;2022-11-22T02:59:58;28.20;;;15.13;;
6825;SDS011;3451;52.476;13.316;2022-11-22T03:02:24;27.03;;;15.27;;
6825;SDS011;3451;52.476;13.316;2022-11-22T03:04:50;28.00;;;15.67;;
6825;SDS011;3451;52.476;13.316;2022-11-22T03:07:17;30.17;;;16.40;;
6825;SDS011;3451;52.476;13.316;2022-11-22T03:09:43;31.57;;;15.97;;
6825;SDS011;3451;52.476;13.316;2022-11-22T03:12:09;27.83;;;15.37;;
6825;SDS011;3451;52.476;13.316;2022-11-22T03:14:36;31.00;;;15.27;;
6825;SDS011;3451;52.476;13.316;2022-11-22T03:17:02;27.60;;;15.47;;
6825;SDS011;3451;52.476;13.316;2022-11-22T03:19:28;27.90;;;16.10;;
6825;SDS011;3451;52.476;13.316;2022-11-22T03:21:55;33.20;;;16.47;;
6825;SDS011;3451;52.476;13.316;2022-11-22T03:24:21;32.13;;;16.73;;
6825;SDS011;3451;52.476;13.316;2022-11-22T03:26:48;31.50;;;16.10;;
6825;SDS011;3451;52.476;13.316;2022-11-22T03:29:15;28.07;;;16.10;;
6825;SDS011;3451;52.476;13.316;2022-11-22T03:31:41;28.20;;;15.37;;
6825;SDS011;3451;52.476;13.316;2022-11-22T03:34:09;29.70;;;15.57;;
6825;SDS011;3451;52.476;13.316;2022-11-22T03:36:35;29.17;;;16.07;;
6825;SDS011;3451;52.476;13.316;2022-11-22T03:39:02;31.33;;;16.67;;
6825;SDS011;3451;52.476;13.316;2022-11-22T03:41:28;30.80;;;16.13;;
6825;SDS011;3451;52.476;13.316;2022-11-22T03:43:55;33.93;;;17.80;;
6825;SDS011;3451;52.476;13.316;2022-11-22T03:46:21;33.33;;;17.00;;
6825;SDS011;3451;52.476;13.316;2022-11-22T03:48:47;32.10;;;16.53;;
6825;SDS011;3451;52.476;13.316;2022-11-22T03:51:13;32.13;;;17.17;;
6825;SDS011;3451;52.476;13.316;2022-11-22T03:53:40;31.47;;;16.40;;
6825;SDS011;3451;52.476;13.316;2022-11-22T03:56:06;30.97;;;16.93;;
6825;SDS011;3451;52.476;13.316;2022-11-22T03:58:33;32.90;;;17.73;;
6825;SDS011;3451;52.476;13.316;2022-11-22T04:00:59;31.43;;;16.70;;
6825;SDS011;3451;52.476;13.316;2022-11-22T04:03:26;34.47;;;17.43;;
6825;SDS011;3451;52.476;13.316;2022-11-22T04:05:52;30.37;;;15.70;;
6825;SDS011;3451;52.476;13.316;2022-11-22T04:08:19;30.30;;;16.43;;
6825;SDS011;3451;52.476;13.316;2022-11-22T04:10:46;29.70;;;16.63;;
6825;SDS011;3451;52.476;13.316;2022-11-22T04:13:13;31.57;;;16.43;;
6825;SDS011;3451;52.476;13.316;2022-11-22T04:15:39;31.13;;;16.83;;
6825;SDS011;3451;52.476;13.316;2022-11-22T04:18:08;29.63;;;16.93;;
6825;SDS011;3451;52.476;13.316;2022-11-22T04:20:34;33.03;;;17.60;;
6825;SDS011;3451;52.476;13.316;2022-11-22T04:23:19;32.70;;;17.13;;
6825;SDS011;3451;52.476;13.316;2022-11-22T04:25:47;39.87;;;17.87;;
6825;SDS011;3451;52.476;13.316;2022-11-22T04:28:14;33.40;;;17.63;;
6825;SDS011;3451;52.476;13.316;2022-11-22T04:30:41;34.47;;;17.07;;
6825;SDS011;3451;52.476;13.316;2022-11-22T04:33:26;31.97;;;17.00;;
6825;SDS011;3451;52.476;13.316;2022-11-22T04:35:53;35.60;;;18.23;;
6825;SDS011;3451;52.476;13.316;2022-11-22T04:38:20;34.63;;;18.60;;
6825;SDS011;3451;52.476;13.316;2022-11-22T04:40:46;34.67;;;17.60;;
6825;SDS011;3451;52.476;13.316;2022-11-22T04:43:26;37.30;;;17.63;;
6825;SDS011;3451;52.476;13.316;2022-11-22T04:46:11;34.67;;;18.03;;
6825;SDS011;3451;52.476;13.316;2022-11-22T04:48:37;37.20;;;18.27;;
6825;SDS011;3451;52.476;13.316;2022-11-22T04:51:04;38.37;;;19.03;;
6825;SDS011;3451;52.476;13.316;2022-11-22T04:53:49;33.60;;;17.87;;
6825;SDS011;3451;52.476;13.316;2022-11-22T04:56:15;35.43;;;19.30;;
6825;SDS011;3451;52.476;13.316;2022-11-22T04:58:42;38.53;;;18.97;;
6825;SDS011;3451;52.476;13.316;2022-11-22T05:01:08;37.97;;;19.10;;
6825;SDS011;3451;52.476;13.316;2022-11-22T05:03:35;36.07;;;17.70;;
6825;SDS011;3451;52.476;13.316;2022-11-22T05:06:02;38.57;;;19.80;;
6825;SDS011;3451;52.476;13.316;2022-11-22T05:08:28;35.90;;;19.17;;
6825;SDS011;3451;52.476;13.316;2022-11-22T05:10:55;42.80;;;19.80;;
6825;SDS011;3451;52.476;13.316;2022-11-22T05:13:30;38.07;;;18.40;;
6825;SDS011;3451;52.476;13.316;2022-11-22T05:15:57;36.23;;;19.17;;
6825;SDS011;3451;52.476;13.316;2022-11-22T05:18:23;39.50;;;19.93;;
6825;SDS011;3451;52.476;13.316;2022-11-22T05:20:50;39.70;;;19.33;;
6825;SDS011;3451;52.476;13.316;2022-11-22T05:23:17;45.30;;;21.03;;
6825;SDS011;3451;52.476;13.316;2022-11-22T05:26:02;37.73;;;19.23;;
6825;SDS011;3451;52.476;13.316;2022-11-22T05:28:30;37.53;;;19.23;;
6825;SDS011;3451;52.476;13.316;2022-11-22T05:30:56;38.57;;;20.27;;
6825;SDS011;3451;52.476;13.316;2022-11-22T05:33:23;38.23;;;19.80;;
6825;SDS011;3451;52.476;13.316;2022-11-22T05:35:49;40.00;;;20.03;;
6825;SDS011;3451;52.476;13.316;2022-11-22T05:38:15;36.90;;;18.67;;
6825;SDS011;3451;52.476;13.316;2022-11-22T05:40:42;39.93;;;20.43;;
6825;SDS011;3451;52.476;13.316;2022-11-22T05:43:08;42.70;;;20.60;;
6825;SDS011;3451;52.476;13.316;2022-11-22T05:45:34;39.57;;;20.10;;
6825;SDS011;3451;52.476;13.316;2022-11-22T05:48:00;46.23;;;21.60;;
6825;SDS011;3451;52.476;13.316;2022-11-22T05:50:26;47.00;;;21.17;;
6825;SDS011;3451;52.476;13.316;2022-11-22T05:52:53;38.80;;;20.63;;
6825;SDS011;3451;52.476;13.316;2022-11-22T05:55:19;42.47;;;20.13;;
6825;SDS011;3451;52.476;13.316;2022-11-22T05:57:46;40.27;;;20.40;;
6825;SDS011;3451;52.476;13.316;2022-11-22T06:00:12;46.93;;;20.40;;
6825;SDS011;3451;52.476;13.316;2022-11-22T06:02:38;43.07;;;20.03;;
6825;SDS011;3451;52.476;13.316;2022-11-22T06:05:05;43.10;;;20.43;;
6825;SDS011;3451;52.476;13.316;2022-11-22T06:07:31;45.90;;;21.47;;
6825;SDS011;3451;52.476;13.316;2022-11-22T06:09:57;42.30;;;20.30;;
6825;SDS011;3451;52.476;13.316;2022-11-22T06:12:24;42.40;;;20.53;;
6825;SDS011;3451;52.476;13.316;2022-11-22T06:14:50;43.40;;;19.63;;
6825;SDS011;3451;52.476;13.316;2022-11-22T06:17:16;43.23;;;20.77;;
6825;SDS011;3451;52.476;13.316;2022-11-22T06:19:42;49.20;;;21.03;;
6825;SDS011;3451;52.476;13.316;2022-11-22T06:22:09;44.60;;;20.97;;
6825;SDS011;3451;52.476;13.316;2022-11-22T06:24:35;45.43;;;20.70;;
6825;SDS011;3451;52.476;13.316;2022-11-22T06:27:01;43.00;;;20.60;;
6825;SDS011;3451;52.476;13.316;2022-11-22T06:29:28;45.47;;;21.17;;
6825;SDS011;3451;52.476;13.316;2022-11-22T06:31:54;40.23;;;20.57;;
6825;SDS011;3451;52.476;13.316;2022-11-22T06:34:28;42.43;;;20.43;;
6825;SDS011;3451;52.476;13.316;2022-11-22T06:36:54;43.17;;;21.07;;
6825;SDS011;3451;52.476;13.316;2022-11-22T06:39:21;45.77;;;20.40;;
6825;SDS011;3451;52.476;13.316;2022-11-22T06:41:47;40.53;;;20.17;;
6825;SDS011;3451;52.476;13.316;2022-11-22T06:44:13;41.23;;;20.60;;
6825;SDS011;3451;52.476;13.316;2022-11-22T06:46:40;47.67;;;20.70;;
6825;SDS011;3451;52.476;13.316;2022-11-22T06:49:06;40.70;;;20.67;;
6825;SDS011;3451;52.476;13.316;2022-11-22T06:51:32;45.07;;;21.17;;
6825;SDS011;3451;52.476;13.316;2022-11-22T06:53:58;44.87;;;20.50;;
6825;SDS011;3451;52.476;13.316;2022-11-22T06:56:26;46.80;;;20.60;;
6825;SDS011;3451;52.476;13.316;2022-11-22T06:58:53;44.13;;;21.77;;
6825;SDS011;3451;52.476;13.316;2022-11-22T07:01:26;44.97;;;20.27;;
6825;SDS011;3451;52.476;13.316;2022-11-22T07:03:53;42.23;;;19.67;;
6825;SDS011;3451;52.476;13.316;2022-11-22T07:06:24;43.37;;;21.00;;
6825;SDS011;3451;52.476;13.316;2022-11-22T07:08:50;43.10;;;21.27;;
6825;SDS011;3451;52.476;13.316;2022-11-22T07:11:18;43.93;;;21.63;;
6825;SDS011;3451;52.476;13.316;2022-11-22T07:13:45;42.07;;;19.53;;
6825;SDS011;3451;52.476;13.316;2022-11-22T07:16:14;44.77;;;20.33;;
6825;SDS011;3451;52.476;13.316;2022-11-22T07:18:41;42.60;;;21.23;;
6825;SDS011;3451;52.476;13.316;2022-11-22T07:21:11;44.60;;;20.83;;
6825;SDS011;3451;52.476;13.316;2022-11-22T07:23:39;40.23;;;19.57;;
6825;SDS011;3451;52.476;13.316;2022-11-22T07:26:06;45.33;;;21.70;;
6825;SDS011;3451;52.476;13.316;2022-11-22T07:28:32;41.90;;;21.13;;
6825;SDS011;3451;52.476;13.316;2022-11-22T07:30:58;42.53;;;19.37;;
6825;SDS011;3451;52.476;13.316;2022-11-22T07:33:25;41.00;;;19.57;;
6825;SDS011;3451;52.476;13.316;2022-11-22T07:35:52;43.73;;;20.47;;
6825;SDS011;3451;52.476;13.316;2022-11-22T07:38:18;43.57;;;20.20;;
6825;SDS011;3451;52.476;13.316;2022-11-22T07:40:44;39.87;;;19.30;;
6825;SDS011;3451;52.476;13.316;2022-11-22T07:43:10;43.07;;;20.10;;
6825;SDS011;3451;52.476;13.316;2022-11-22T07:45:37;44.03;;;21.27;;
6825;SDS011;3451;52.476;13.316;2022-11-22T07:48:03;43.63;;;20.33;;
6825;SDS011;3451;52.476;13.316;2022-11-22T07:50:29;41.90;;;19.67;;
6825;SDS011;3451;52.476;13.316;2022-11-22T07:52:57;43.83;;;20.93;;
6825;SDS011;3451;52.476;13.316;2022-11-22T07:55:23;44.70;;;21.40;;
6825;SDS011;3451;52.476;13.316;2022-11-22T07:57:50;38.37;;;18.80;;
6825;SDS011;3451;52.476;13.316;2022-11-22T08:00:17;41.13;;;20.37;;
6825;SDS011;3451;52.476;13.316;2022-11-22T08:02:44;44.20;;;20.70;;
6825;SDS011;3451;52.476;13.316;2022-11-22T08:05:11;45.97;;;21.37;;
6825;SDS011;3451;52.476;13.316;2022-11-22T08:07:37;45.07;;;20.80;;
6825;SDS011;3451;52.476;13.316;2022-11-22T08:10:03;44.00;;;19.50;;
6825;SDS011;3451;52.476;13.316;2022-11-22T08:12:30;40.33;;;19.53;;
6825;SDS011;3451;52.476;13.316;2022-11-22T08:14:56;44.03;;;20.37;;
6825;SDS011;3451;52.476;13.316;2022-11-22T08:17:22;41.17;;;20.40;;
6825;SDS011;3451;52.476;13.316;2022-11-22T08:19:48;41.33;;;20.50;;
6825;SDS011;3451;52.476;13.316;2022-11-22T08:22:18;43.63;;;20.87;;
6825;SDS011;3451;52.476;13.316;2022-11-22T08:24:44;41.63;;;19.93;;
6825;SDS011;3451;52.476;13.316;2022-11-22T08:27:10;41.87;;;19.47;;
6825;SDS011;3451;52.476;13.316;2022-11-22T08:29:37;43.20;;;20.53;;
6825;SDS011;3451;52.476;13.316;2022-11-22T08:32:03;38.30;;;20.07;;
6825;SDS011;3451;52.476;13.316;2022-11-22T08:34:29;40.53;;;19.20;;
6825;SDS011;3451;52.476;13.316;2022-11-22T08:36:56;43.93;;;21.33;;
6825;SDS011;3451;52.476;13.316;2022-11-22T08:39:22;43.40;;;20.10;;
6825;SDS011;3451;52.476;13.316;2022-11-22T08:41:48;39.93;;;20.03;;
6825;SDS011;3451;52.476;13.316;2022-11-22T08:44:14;40.07;;;20.20;;
6825;SDS011;3451;52.476;13.316;2022-11-22T08:46:40;40.93;;;20.57;;
6825;SDS011;3451;52.476;13.316;2022-11-22T08:49:09;43.37;;;20.30;;
6825;SDS011;3451;52.476;13.316;2022-11-22T08:51:35;42.40;;;20.67;;
6825;SDS011;3451;52.476;13.316;2022-11-22T08:54:02;40.23;;;20.30;;
6825;SDS011;3451;52.476;13.316;2022-11-22T08:56:28;43.33;;;21.03;;
6825;SDS011;3451;52.476;13.316;2022-11-22T08:58:54;40.33;;;20.03;;
6825;SDS011;3451;52.476;13.316;2022-11-22T09:01:20;45.60;;;21.30;;
6825;SDS011;3451;52.476;13.316;2022-11-22T09:03:48;46.37;;;21.77;;
6825;SDS011;3451;52.476;13.316;2022-11-22T09:06:15;42.97;;;21.30;;
6825;SDS011;3451;52.476;13.316;2022-11-22T09:09:02;40.87;;;20.50;;
6825;SDS011;3451;52.476;13.316;2022-11-22T09:11:49;44.47;;;21.27;;
6825;SDS011;3451;52.476;13.316;2022-11-22T09:14:15;44.33;;;20.73;;
6825;SDS011;3451;52.476;13.316;2022-11-22T09:16:41;46.40;;;21.63;;
6825;SDS011;3451;52.476;13.316;2022-11-22T09:19:07;44.50;;;19.90;;
6825;SDS011;3451;52.476;13.316;2022-11-22T09:21:34;48.07;;;20.93;;
6825;SDS011;3451;52.476;13.316;2022-11-22T09:24:00;46.63;;;20.73;;
6825;SDS011;3451;52.476;13.316;2022-11-22T09:26:26;42.73;;;21.00;;
6825;SDS011;3451;52.476;13.316;2022-11-22T09:28:55;44.23;;;21.13;;
6825;SDS011;3451;52.476;13.316;2022-11-22T09:31:21;48.13;;;21.70;;
6825;SDS011;3451;52.476;13.316;2022-11-22T09:33:49;42.97;;;20.20;;
6825;SDS011;3451;52.476;13.316;2022-11-22T09:36:16;41.77;;;19.67;;
6825;SDS011;3451;52.476;13.316;2022-11-22T09:38:42;41.20;;;19.60;;
6825;SDS011;3451;52.476;13.316;2022-11-22T09:43:55;43.83;;;20.57;;
6825;SDS011;3451;52.476;13.316;2022-11-22T09:46:26;52.57;;;22.47;;
6825;SDS011;3451;52.476;13.316;2022-11-22T09:49:00;46.20;;;21.33;;
6825;SDS011;3451;52.476;13.316;2022-11-22T09:51:35;45.90;;;20.60;;
6825;SDS011;3451;52.476;13.316;2022-11-22T09:54:09;45.23;;;21.87;;
6825;SDS011;3451;52.476;13.316;2022-11-22T09:56:37;46.80;;;21.87;;
6825;SDS011;3451;52.476;13.316;2022-11-22T09:59:15;42.23;;;21.20;;
6825;SDS011;3451;52.476;13.316;2022-11-22T10:01:44;49.33;;;21.30;;
6825;SDS011;3451;52.476;13.316;2022-11-22T10:04:21;43.50;;;20.53;;
6825;SDS011;3451;52.476;13.316;2022-11-22T10:06:54;42.40;;;21.37;;
6825;SDS011;3451;52.476;13.316;2022-11-22T10:09:26;45.37;;;20.53;;
6825;SDS011;3451;52.476;13.316;2022-11-22T10:11:58;43.53;;;21.23;;
6825;SDS011;3451;52.476;13.316;2022-11-22T10:14:32;48.63;;;22.30;;
6825;SDS011;3451;52.476;13.316;2022-11-22T10:19:30;46.10;;;21.00;;
6825;SDS011;3451;52.476;13.316;2022-11-22T10:21:59;39.93;;;20.40;;
6825;SDS011;3451;52.476;13.316;2022-11-22T10:24:26;48.23;;;20.83;;
6825;SDS011;3451;52.476;13.316;2022-11-22T10:26:53;47.10;;;21.67;;
6825;SDS011;3451;52.476;13.316;2022-11-22T10:29:28;47.60;;;20.73;;
6825;SDS011;3451;52.476;13.316;2022-11-22T10:37:22;46.87;;;21.60;;
6825;SDS011;3451;52.476;13.316;2022-11-22T10:40:07;49.27;;;20.67;;
6825;SDS011;3451;52.476;13.316;2022-11-22T10:45:28;47.43;;;21.10;;
6825;SDS011;3451;52.476;13.316;2022-11-22T10:48:01;45.97;;;21.63;;
6825;SDS011;3451;52.476;13.316;2022-11-22T10:55:47;44.97;;;20.90;;
6825;SDS011;3451;52.476;13.316;2022-11-22T10:58:33;43.53;;;21.00;;
6825;SDS011;3451;52.476;13.316;2022-11-22T11:01:17;45.27;;;19.93;;
6825;SDS011;3451;52.476;13.316;2022-11-22T11:03:48;50.03;;;21.13;;
6825;SDS011;3451;52.476;13.316;2022-11-22T11:06:18;45.50;;;21.50;;
6825;SDS011;3451;52.476;13.316;2022-11-22T11:09:08;46.80;;;20.23;;
6825;SDS011;3451;52.476;13.316;2022-11-22T11:11:55;49.33;;;22.13;;
6825;SDS011;3451;52.476;13.316;2022-11-22T11:14:31;44.80;;;21.03;;
6825;SDS011;3451;52.476;13.316;2022-11-22T11:16:59;44.70;;;21.43;;
6825;SDS011;3451;52.476;13.316;2022-11-22T11:19:27;43.97;;;21.20;;
6825;SDS011;3451;52.476;13.316;2022-11-22T11:21:58;45.70;;;20.63;;
6825;SDS011;3451;52.476;13.316;2022-11-22T11:24:27;42.13;;;21.17;;
6825;SDS011;3451;52.476;13.316;2022-11-22T11:26:54;47.47;;;20.97;;
6825;SDS011;3451;52.476;13.316;2022-11-22T11:29:29;46.83;;;21.00;;
6825;SDS011;3451;52.476;13.316;2022-11-22T11:32:04;45.10;;;20.47;;
6825;SDS011;3451;52.476;13.316;2022-11-22T11:34:31;43.33;;;19.80;;
6825;SDS011;3451;52.476;13.316;2022-11-22T11:37:00;45.63;;;20.57;;
6825;SDS011;3451;52.476;13.316;2022-11-22T11:39:28;46.57;;;21.03;;
6825;SDS011;3451;52.476;13.316;2022-11-22T11:41:55;46.97;;;21.23;;
6825;SDS011;3451;52.476;13.316;2022-11-22T11:44:36;41.20;;;20.40;;
6825;SDS011;3451;52.476;13.316;2022-11-22T11:47:03;39.93;;;20.60;;
6825;SDS011;3451;52.476;13.316;2022-11-22T11:49:30;41.97;;;20.53;;
6825;SDS011;3451;52.476;13.316;2022-11-22T11:51:57;47.13;;;21.10;;
6825;SDS011;3451;52.476;13.316;2022-11-22T11:54:34;47.47;;;21.80;;
6825;SDS011;3451;52.476;13.316;2022-11-22T11:57:05;42.80;;;20.13;;
6825;SDS011;3451;52.476;13.316;2022-11-22T12:02:09;42.83;;;20.20;;
6825;SDS011;3451;52.476;13.316;2022-11-22T12:04:43;44.20;;;20.30;;
6825;SDS011;3451;52.476;13.316;2022-11-22T12:07:24;42.97;;;20.40;;
6825;SDS011;3451;52.476;13.316;2022-11-22T12:09:52;43.73;;;20.60;;
6825;SDS011;3451;52.476;13.316;2022-11-22T12:15:32;42.60;;;19.43;;
6825;SDS011;3451;52.476;13.316;2022-11-22T12:18:05;42.93;;;20.80;;
6825;SDS011;3451;52.476;13.316;2022-11-22T12:20:42;47.50;;;21.00;;
6825;SDS011;3451;52.476;13.316;2022-11-22T12:23:26;42.33;;;19.47;;
6825;SDS011;3451;52.476;13.316;2022-11-22T12:25:57;40.97;;;20.43;;
6825;SDS011;3451;52.476;13.316;2022-11-22T12:28:25;46.53;;;22.00;;
6825;SDS011;3451;52.476;13.316;2022-11-22T12:30:54;44.40;;;21.80;;
6825;SDS011;3451;52.476;13.316;2022-11-22T12:33:23;39.80;;;19.80;;
6825;SDS011;3451;52.476;13.316;2022-11-22T12:35:51;43.27;;;22.10;;
6825;SDS011;3451;52.476;13.316;2022-11-22T12:38:23;43.93;;;20.80;;
6825;SDS011;3451;52.476;13.316;2022-11-22T12:40:51;43.17;;;20.77;;
6825;SDS011;3451;52.476;13.316;2022-11-22T12:43:29;41.10;;;20.60;;
6825;SDS011;3451;52.476;13.316;2022-11-22T12:45:59;43.87;;;21.53;;
6825;SDS011;3451;52.476;13.316;2022-11-22T12:48:31;42.83;;;20.83;;
6825;SDS011;3451;52.476;13.316;2022-11-22T12:51:05;44.23;;;21.10;;
6825;SDS011;3451;52.476;13.316;2022-11-22T12:53:33;45.03;;;20.97;;
6825;SDS011;3451;52.476;13.316;2022-11-22T12:58:51;40.60;;;19.80;;
6825;SDS011;3451;52.476;13.316;2022-11-22T13:01:24;44.40;;;20.43;;
6825;SDS011;3451;52.476;13.316;2022-11-22T13:07:00;46.53;;;21.13;;
6825;SDS011;3451;52.476;13.316;2022-11-22T13:09:30;43.07;;;21.20;;
6825;SDS011;3451;52.476;13.316;2022-11-22T13:12:08;46.60;;;21.33;;
6825;SDS011;3451;52.476;13.316;2022-11-22T13:14:46;41.07;;;20.63;;
6825;SDS011;3451;52.476;13.316;2022-11-22T13:17:15;47.17;;;21.30;;
6825;SDS011;3451;52.476;13.316;2022-11-22T13:19:44;43.27;;;21.37;;
6825;SDS011;3451;52.476;13.316;2022-11-22T13:22:21;41.03;;;21.20;;
6825;SDS011;3451;52.476;13.316;2022-11-22T13:29:45;47.60;;;21.73;;
6825;SDS011;3451;52.476;13.316;2022-11-22T13:34:57;50.43;;;20.97;;
6825;SDS011;3451;52.476;13.316;2022-11-22T13:37:25;41.80;;;21.33;;
6825;SDS011;3451;52.476;13.316;2022-11-22T13:39:52;43.17;;;21.07;;
6825;SDS011;3451;52.476;13.316;2022-11-22T13:42:21;43.97;;;22.83;;
6825;SDS011;3451;52.476;13.316;2022-11-22T13:44:50;50.00;;;21.73;;
6825;SDS011;3451;52.476;13.316;2022-11-22T13:49:49;43.90;;;21.70;;
6825;SDS011;3451;52.476;13.316;2022-11-22T14:07:51;45.13;;;21.90;;
6825;SDS011;3451;52.476;13.316;2022-11-22T14:10:23;45.20;;;21.20;;
6825;SDS011;3451;52.476;13.316;2022-11-22T14:26:13;40.43;;;20.47;;
6825;SDS011;3451;52.476;13.316;2022-11-22T14:31:27;40.90;;;19.23;;
6825;SDS011;3451;52.476;13.316;2022-11-22T14:36:40;38.53;;;19.40;;
6825;SDS011;3451;52.476;13.316;2022-11-22T14:41:58;42.27;;;20.13;;
6825;SDS011;3451;52.476;13.316;2022-11-22T14:44:25;43.67;;;20.83;;
6825;SDS011;3451;52.476;13.316;2022-11-22T14:46:59;40.00;;;20.33;;
6825;SDS011;3451;52.476;13.316;2022-11-22T14:51:57;38.47;;;19.63;;
6825;SDS011;3451;52.476;13.316;2022-11-22T14:54:29;41.17;;;19.90;;
6825;SDS011;3451;52.476;13.316;2022-11-22T14:56:56;40.77;;;21.37;;
6825;SDS011;3451;52.476;13.316;2022-11-22T15:15:28;42.23;;;20.77;;
6825;SDS011;3451;52.476;13.316;2022-11-22T15:18:22;46.67;;;22.00;;
6825;SDS011;3451;52.476;13.316;2022-11-22T15:24:20;46.67;;;21.60;;
6825;SDS011;3451;52.476;13.316;2022-11-22T15:27:17;39.07;;;19.60;;
6825;SDS011;3451;52.476;13.316;2022-11-22T15:33:03;42.13;;;21.33;;
6825;SDS011;3451;52.476;13.316;2022-11-22T15:35:52;41.20;;;20.07;;
6825;SDS011;3451;52.476;13.316;2022-11-22T15:38:42;38.70;;;20.60;;
6825;SDS011;3451;52.476;13.316;2022-11-22T15:41:29;42.43;;;21.47;;
6825;SDS011;3451;52.476;13.316;2022-11-22T15:44:16;44.73;;;21.87;;
6825;SDS011;3451;52.476;13.316;2022-11-22T15:47:04;43.40;;;21.77;;
6825;SDS011;3451;52.476;13.316;2022-11-22T15:49:51;44.47;;;21.43;;
6825;SDS011;3451;52.476;13.316;2022-11-22T15:52:38;44.37;;;21.13;;
6825;SDS011;3451;52.476;13.316;2022-11-22T15:55:24;46.43;;;22.23;;
6825;SDS011;3451;52.476;13.316;2022-11-22T15:58:11;38.93;;;20.73;;
6825;SDS011;3451;52.476;13.316;2022-11-22T16:00:41;45.80;;;22.27;;
6825;SDS011;3451;52.476;13.316;2022-11-22T16:03:14;40.97;;;21.97;;
6825;SDS011;3451;52.476;13.316;2022-11-22T16:05:46;42.57;;;20.40;;
6825;SDS011;3451;52.476;13.316;2022-11-22T16:08:33;40.00;;;20.70;;
6825;SDS011;3451;52.476;13.316;2022-11-22T16:11:00;46.87;;;21.23;;
6825;SDS011;3451;52.476;13.316;2022-11-22T16:13:31;42.87;;;21.00;;
6825;SDS011;3451;52.476;13.316;2022-11-22T16:18:40;39.97;;;20.87;;
6825;SDS011;3451;52.476;13.316;2022-11-22T16:23:39;40.17;;;20.97;;
6825;SDS011;3451;52.476;13.316;2022-11-22T16:26:23;43.70;;;21.97;;
6825;SDS011;3451;52.476;13.316;2022-11-22T16:28:51;42.93;;;21.60;;
6825;SDS011;3451;52.476;13.316;2022-11-22T16:31:22;42.60;;;22.20;;
6825;SDS011;3451;52.476;13.316;2022-11-22T16:33:49;44.47;;;22.33;;
6825;SDS011;3451;52.476;13.316;2022-11-22T16:36:16;40.70;;;21.40;;